Beijing Capital International Airport
ZBAA : now visible

Airfield :











YOU CAN JOIN US ON...

 
LOGIN :

Register | Disclaimer

   EN    FR    IT 

 









Legend :    VFR   Marginal VFR   IFR   Intensive IFR   Very Intensive IFR
Visi :
Ceiling :
>= 8 km
>= 3000ft
5 to 8 km
1000 to 3000 ft
1500m to 5 km
500 to 1000 ft
800 to 1500m
200 to 500 ft
< 800m
< 200 ft
Symbols :   Thunderstorms  Fog  Heavy snow  Heavy precipitations  Wind > 20 kt






- Airport Elevation : 116 ft
- IATA code : PEK


ZBAA - Beijing Capital International

CURRENT METAR :
  • 231830Z 13002MPS 100V160 9999 OVC040 20/10 Q1014 NOSIG

EXPIRED METARs :
  • 231800Z 14003MPS 110V170 9999 OVC040 20/10 Q1014 NOSIG
  • 231730Z 15003MPS 9999 OVC040 20/10 Q1014 NOSIG
  • 231700Z 13002MPS 080V150 9999 OVC040 20/11 Q1014 NOSIG
  • 231630Z 15003MPS 9999 OVC040 21/11 Q1014 NOSIG
  • 231600Z 16004MPS 9999 OVC040 21/11 Q1014 NOSIG
  • 231530Z 14003MPS 9999 OVC040 21/12 Q1013 NOSIG
  • 231500Z 15004MPS 120V180 9999 OVC040 21/12 Q1013 NOSIG
  • 231430Z 14004MPS 100V170 9999 OVC040 22/12 Q1013 NOSIG
  • 231400Z 14004MPS 9999 OVC040 22/12 Q1013 NOSIG

TAF TAF ZBAA
Valid from the 23 at 18:00 until the 24 at 18:00 UTC


231501Z 2318/2418 12004MPS 6000 NSC TX21/2407Z TN17/2321Z
ZBPE FIR / Asia



MET'MAP, your aeronautical weather chart ! - Copyright ORBIFLY December 2007 - Disclaimer

ORBIFLY MET'MAP TEAM :

Programming & Development : Alexandra Zaïnal
Original concept : Baudouin d'Aumeries
Technical & hardware support : Manuel Goepfert
Assistance : Marc-Olivier Méhu




SOURCES & CREDITS :

   NOAA       Earth
Advisory